createdAt,value
2018-02-21T00:00:59.781Z,39.57
2018-02-21T00:03:28.199Z,39.33
2018-02-21T00:05:55.876Z,39.77
2018-02-21T00:08:23.524Z,40.33
2018-02-21T00:10:51.147Z,39.87
2018-02-21T00:13:18.823Z,37.93
2018-02-21T00:15:46.492Z,39.63
2018-02-21T00:18:14.177Z,40.67
2018-02-21T00:20:41.867Z,37.33
2018-02-21T00:23:09.496Z,37.93
2018-02-21T00:25:37.185Z,37.27
2018-02-21T00:28:04.824Z,39.60
2018-02-21T00:30:32.483Z,41.03
2018-02-21T00:33:00.888Z,38.83
2018-02-21T00:35:28.623Z,39.10
2018-02-21T00:37:56.275Z,36.13
2018-02-21T00:40:24.659Z,40.77
2018-02-21T00:42:52.324Z,40.87
2018-02-21T00:45:19.979Z,42.43
2018-02-21T00:47:47.590Z,39.73
2018-02-21T00:50:15.259Z,41.63
2018-02-21T00:52:42.877Z,42.40
2018-02-21T00:55:11.360Z,38.73
2018-02-21T00:57:39.043Z,41.90
2018-02-21T01:00:06.659Z,42.00
2018-02-21T01:02:34.326Z,42.87
2018-02-21T01:05:01.987Z,42.10
2018-02-21T01:07:29.654Z,40.43
2018-02-21T01:09:58.134Z,43.63
2018-02-21T01:12:26.552Z,38.57
2018-02-21T01:14:54.243Z,40.20
2018-02-21T01:17:21.864Z,45.40
2018-02-21T01:19:49.495Z,44.03
2018-02-21T01:22:17.158Z,43.00
2018-02-21T01:24:44.816Z,42.43
2018-02-21T01:32:59.792Z,44.43
2018-02-21T01:35:27.454Z,42.53
2018-02-21T01:37:55.137Z,42.67
2018-02-21T01:40:23.678Z,44.77
2018-02-21T01:42:51.285Z,43.87
2018-02-21T01:45:18.924Z,45.17
2018-02-21T01:47:46.574Z,44.63
2018-02-21T01:50:14.942Z,43.93
2018-02-21T01:52:42.576Z,45.17
2018-02-21T01:55:10.203Z,45.27
2018-02-21T01:57:37.846Z,46.73
2018-02-21T02:00:06.235Z,43.57
2018-02-21T02:02:34.635Z,47.03
2018-02-21T02:05:02.316Z,44.77
2018-02-21T02:07:29.931Z,43.33
2018-02-21T02:09:57.576Z,44.10
2018-02-21T02:12:25.188Z,42.77
2018-02-21T02:14:52.859Z,43.40
2018-02-21T02:17:20.500Z,43.77
2018-02-21T02:19:48.114Z,44.40
2018-02-21T02:22:15.771Z,44.10
2018-02-21T02:24:44.134Z,46.23
2018-02-21T02:27:11.780Z,48.97
2018-02-21T02:29:39.451Z,47.70
2018-02-21T02:32:07.887Z,43.23
2018-02-21T02:34:35.561Z,48.83
2018-02-21T02:37:03.944Z,51.63
2018-02-21T02:39:43.304Z,48.13
2018-02-21T02:42:10.932Z,45.77
2018-02-21T02:44:39.390Z,46.57
2018-02-21T02:47:07.036Z,48.87
2018-02-21T02:49:34.669Z,48.27
2018-02-21T02:52:03.074Z,48.77
2018-02-21T02:54:30.690Z,50.33
2018-02-21T02:56:58.355Z,47.90
2018-02-21T02:59:25.995Z,49.10
2018-02-21T03:01:53.607Z,51.70
2018-02-21T03:04:21.260Z,51.47
2018-02-21T03:06:48.871Z,52.80
2018-02-21T03:09:16.519Z,51.57
2018-02-21T03:11:44.206Z,50.77
2018-02-21T03:14:11.852Z,53.47
2018-02-21T03:16:39.563Z,54.53
2018-02-21T03:19:07.863Z,56.73
2018-02-21T03:21:35.516Z,56.80
2018-02-21T03:24:03.208Z,53.53
2018-02-21T03:26:30.839Z,55.70
2018-02-21T03:28:58.470Z,54.40
2018-02-21T03:31:26.103Z,54.13
2018-02-21T03:33:53.784Z,56.10
2018-02-21T03:36:21.443Z,54.83
2018-02-21T03:38:49.049Z,55.97
2018-02-21T03:41:16.683Z,56.17
2018-02-21T03:43:44.318Z,60.83
2018-02-21T03:46:11.970Z,61.30
2018-02-21T03:48:39.660Z,63.60
2018-02-21T03:51:07.307Z,67.50
2018-02-21T03:53:35.155Z,63.77
2018-02-21T03:56:02.779Z,66.40
2018-02-21T03:58:30.424Z,65.80
2018-02-21T04:00:58.112Z,70.57
2018-02-21T04:03:25.815Z,67.80
2018-02-21T04:05:53.456Z,66.50
2018-02-21T04:08:21.088Z,65.90
2018-02-21T04:10:49.491Z,63.17
2018-02-21T04:13:17.138Z,59.70
2018-02-21T04:15:45.531Z,68.47
2018-02-21T04:18:13.983Z,63.83
2018-02-21T04:20:41.644Z,66.07
2018-02-21T04:23:09.299Z,65.93
2018-02-21T04:25:37.011Z,62.47
2018-02-21T04:28:04.984Z,63.97
2018-02-21T04:30:33.391Z,61.53
2018-02-21T04:33:01.007Z,65.33
2018-02-21T04:35:29.447Z,68.43
2018-02-21T04:37:57.144Z,67.63
2018-02-21T04:40:24.779Z,67.17
2018-02-21T04:42:52.439Z,69.07
2018-02-21T04:45:20.077Z,68.83
2018-02-21T04:47:48.471Z,72.13
2018-02-21T04:50:16.895Z,66.97
2018-02-21T04:52:44.578Z,63.57
2018-02-21T04:55:14.716Z,64.53
2018-02-21T04:57:47.967Z,66.10
2018-02-21T05:00:37.193Z,61.40
2018-02-21T05:03:04.803Z,60.03
2018-02-21T05:05:32.432Z,60.30
2018-02-21T05:08:00.063Z,63.47
2018-02-21T05:10:27.701Z,59.67
2018-02-21T05:12:55.366Z,65.03
2018-02-21T05:15:23.023Z,59.07
2018-02-21T05:17:50.719Z,59.43
2018-02-21T05:20:18.379Z,64.97
2018-02-21T05:22:45.988Z,59.23
2018-02-21T05:25:13.623Z,59.10
2018-02-21T05:27:41.385Z,55.07
2018-02-21T05:30:09.125Z,56.97
2018-02-21T05:32:36.793Z,57.63
2018-02-21T05:35:04.475Z,60.40
2018-02-21T05:37:32.155Z,55.20
2018-02-21T05:39:59.832Z,58.67
2018-02-21T05:42:27.503Z,51.53
2018-02-21T05:44:55.924Z,54.20
2018-02-21T05:47:24.318Z,49.47
2018-02-21T05:49:52.856Z,58.63
2018-02-21T05:52:20.499Z,50.03
2018-02-21T05:54:48.112Z,49.13
2018-02-21T05:57:15.798Z,50.67
2018-02-21T05:59:43.415Z,51.40
2018-02-21T06:02:11.057Z,46.57
2018-02-21T06:04:38.730Z,52.67
2018-02-21T06:07:06.387Z,51.07
2018-02-21T06:09:34.049Z,48.50
2018-02-21T06:12:02.440Z,49.13
2018-02-21T06:14:30.131Z,45.70
2018-02-21T06:16:57.884Z,55.17
2018-02-21T06:19:25.704Z,56.63
2018-02-21T06:21:53.348Z,51.90
2018-02-21T06:24:21.731Z,55.03
2018-02-21T06:26:49.411Z,45.57
2018-02-21T06:29:17.075Z,54.83
2018-02-21T06:31:44.695Z,53.67
2018-02-21T06:34:12.356Z,53.07
2018-02-21T06:36:39.974Z,49.87
2018-02-21T06:39:07.650Z,48.57
2018-02-21T06:41:35.311Z,48.63
2018-02-21T06:44:03.726Z,51.83
2018-02-21T06:46:31.531Z,49.90
2018-02-21T06:48:59.932Z,50.70
2018-02-21T06:51:27.567Z,48.87
2018-02-21T06:53:55.215Z,51.97
2018-02-21T06:56:23.619Z,47.13
2018-02-21T06:58:52.032Z,49.53
2018-02-21T07:01:19.660Z,47.57
2018-02-21T07:03:47.303Z,48.07
2018-02-21T07:06:16.372Z,48.07
2018-02-21T07:08:44.010Z,48.57
2018-02-21T07:11:11.705Z,51.20
2018-02-21T07:13:39.499Z,49.67
2018-02-21T07:16:07.230Z,49.53
2018-02-21T07:18:34.872Z,48.13
2018-02-21T07:21:02.536Z,47.90
2018-02-21T07:23:30.207Z,50.13
2018-02-21T07:25:57.826Z,49.93
2018-02-21T07:28:25.488Z,49.83
2018-02-21T07:30:53.129Z,50.13
2018-02-21T07:33:20.806Z,48.33
2018-02-21T07:35:48.491Z,47.77
2018-02-21T07:38:16.155Z,48.63
2018-02-21T07:40:43.791Z,49.23
2018-02-21T07:43:11.413Z,48.17
2018-02-21T07:45:39.438Z,47.23
2018-02-21T07:48:07.202Z,45.50
2018-02-21T07:50:35.284Z,46.83
2018-02-21T07:53:03.024Z,42.13
2018-02-21T07:55:30.667Z,40.97
2018-02-21T07:57:59.149Z,42.53
2018-02-21T08:00:27.647Z,39.63
2018-02-21T08:02:55.976Z,46.63
2018-02-21T08:05:23.816Z,40.50
2018-02-21T08:07:51.427Z,46.33
2018-02-21T08:10:40.129Z,40.43
2018-02-21T08:13:07.751Z,40.17
2018-02-21T08:15:36.163Z,44.63
2018-02-21T08:18:03.874Z,38.93
2018-02-21T08:20:31.527Z,39.27
2018-02-21T08:22:59.209Z,42.63
2018-02-21T08:25:26.856Z,44.30
2018-02-21T08:27:54.528Z,40.27
2018-02-21T08:30:22.208Z,40.57
2018-02-21T08:32:49.958Z,41.37
2018-02-21T08:35:18.980Z,43.33
2018-02-21T08:37:47.377Z,39.80
2018-02-21T08:40:15.015Z,39.90
2018-02-21T08:42:42.669Z,41.67
2018-02-21T08:45:10.312Z,41.30
2018-02-21T08:47:37.971Z,38.93
2018-02-21T08:50:06.399Z,40.30
2018-02-21T08:52:34.043Z,40.80
2018-02-21T08:55:01.712Z,38.80
2018-02-21T08:57:30.138Z,40.73
2018-02-21T08:59:57.782Z,40.13
2018-02-21T09:02:25.464Z,38.93
2018-02-21T09:04:53.116Z,42.40
2018-02-21T09:07:21.532Z,40.17
2018-02-21T09:09:49.203Z,40.60
2018-02-21T09:12:16.807Z,37.73
2018-02-21T09:14:44.499Z,38.10
2018-02-21T09:17:12.141Z,40.90
2018-02-21T09:19:39.835Z,39.97
2018-02-21T09:22:07.502Z,43.17
2018-02-21T09:24:35.127Z,40.67
2018-02-21T09:27:03.549Z,39.80
2018-02-21T09:29:31.191Z,35.97
2018-02-21T09:31:59.601Z,36.87
2018-02-21T09:34:27.232Z,42.83
2018-02-21T09:36:54.900Z,40.97
2018-02-21T09:39:22.558Z,44.70
2018-02-21T09:41:50.193Z,37.97
2018-02-21T09:44:17.858Z,42.97
2018-02-21T09:46:46.279Z,39.90
2018-02-21T09:49:13.927Z,39.80
2018-02-21T09:51:42.375Z,38.23
2018-02-21T09:54:09.980Z,38.83
2018-02-21T09:56:37.616Z,40.00
2018-02-21T09:59:05.241Z,38.63
2018-02-21T10:01:33.660Z,36.27
2018-02-21T10:04:01.316Z,41.47
2018-02-21T10:06:28.944Z,36.90
2018-02-21T10:08:56.592Z,37.00
2018-02-21T10:11:24.227Z,37.10
2018-02-21T10:13:52.676Z,36.10
2018-02-21T10:16:20.367Z,38.77
2018-02-21T10:18:47.990Z,38.83
2018-02-21T10:21:15.645Z,36.83
2018-02-21T10:23:44.033Z,35.60
2018-02-21T10:26:12.483Z,40.30
2018-02-21T10:28:40.174Z,38.40
2018-02-21T10:31:07.820Z,32.77
2018-02-21T10:33:36.244Z,35.40
2018-02-21T10:36:03.914Z,33.83
2018-02-21T10:38:31.632Z,36.37
2018-02-21T10:40:59.310Z,32.93
2018-02-21T10:43:26.940Z,38.23
2018-02-21T10:45:54.586Z,36.80
2018-02-21T10:48:22.220Z,36.37
2018-02-21T10:50:49.910Z,35.77
2018-02-21T10:53:17.509Z,35.93
2018-02-21T10:55:45.157Z,38.37
2018-02-21T10:58:12.805Z,34.23
2018-02-21T11:00:46.797Z,36.13
2018-02-21T11:03:14.499Z,38.87
2018-02-21T11:05:42.902Z,32.60
2018-02-21T11:08:11.356Z,35.33
2018-02-21T11:10:38.999Z,35.30
2018-02-21T11:13:06.656Z,34.03
2018-02-21T11:15:34.321Z,33.97
2018-02-21T11:18:01.992Z,36.77
2018-02-21T11:20:29.620Z,35.07
2018-02-21T11:22:57.272Z,36.40
2018-02-21T11:25:24.932Z,33.93
2018-02-21T11:27:52.744Z,33.77
2018-02-21T11:30:20.380Z,35.47
2018-02-21T11:32:48.043Z,29.73
2018-02-21T11:35:15.699Z,32.40
2018-02-21T11:37:44.339Z,30.00
2018-02-21T11:40:12.004Z,30.23
2018-02-21T11:42:39.772Z,29.17
2018-02-21T11:45:07.452Z,30.03
2018-02-21T11:47:35.106Z,30.27
2018-02-21T11:50:03.537Z,28.77
2018-02-21T11:52:31.191Z,27.83
2018-02-21T11:54:59.907Z,26.97
2018-02-21T11:57:35.319Z,28.30
2018-02-21T12:00:02.971Z,29.67
2018-02-21T12:02:30.712Z,29.60
2018-02-21T12:05:13.823Z,28.33
2018-02-21T12:07:42.239Z,26.77
2018-02-21T12:10:10.913Z,26.63
2018-02-21T12:12:39.348Z,27.33
2018-02-21T12:15:06.991Z,24.97
2018-02-21T12:17:34.636Z,27.17
2018-02-21T12:20:02.288Z,25.50
2018-02-21T12:22:29.954Z,24.80
2018-02-21T12:24:57.622Z,25.17
2018-02-21T12:33:11.047Z,28.27
2018-02-21T12:35:38.840Z,27.93
2018-02-21T12:38:06.525Z,25.90
2018-02-21T12:40:39.763Z,26.70
2018-02-21T12:43:07.408Z,22.83
2018-02-21T12:45:35.055Z,21.37
2018-02-21T12:48:02.706Z,24.20
2018-02-21T12:50:30.338Z,25.07
2018-02-21T12:52:58.792Z,24.63
2018-02-21T12:55:26.460Z,23.80
2018-02-21T12:57:54.105Z,23.70
2018-02-21T13:00:21.771Z,22.20
2018-02-21T13:02:49.421Z,25.23
2018-02-21T13:05:17.878Z,21.37
2018-02-21T13:07:45.506Z,23.97
2018-02-21T13:10:13.175Z,23.37
2018-02-21T13:12:40.822Z,24.53
2018-02-21T13:15:08.469Z,22.67
2018-02-21T13:17:36.112Z,23.63
2018-02-21T13:22:39.972Z,22.93
2018-02-21T13:25:08.448Z,24.03
2018-02-21T13:27:36.128Z,22.77
2018-02-21T13:30:03.895Z,22.30
2018-02-21T13:32:32.372Z,22.23
2018-02-21T13:35:00.017Z,22.20
2018-02-21T13:37:27.687Z,22.87
2018-02-21T13:39:55.496Z,21.97
2018-02-21T13:42:23.892Z,27.80
2018-02-21T13:44:52.333Z,21.30
2018-02-21T13:47:19.976Z,20.97
2018-02-21T13:49:47.701Z,22.40
2018-02-21T13:52:15.335Z,22.57
2018-02-21T13:54:42.979Z,24.03
2018-02-21T13:57:11.444Z,21.57
2018-02-21T13:59:39.072Z,20.40
2018-02-21T14:02:06.746Z,23.03
2018-02-21T14:04:34.390Z,21.13
2018-02-21T14:07:02.119Z,20.50
2018-02-21T14:09:29.887Z,22.70
2018-02-21T14:11:58.359Z,21.83
2018-02-21T14:14:26.811Z,23.90
2018-02-21T14:16:54.455Z,19.97
2018-02-21T14:19:22.133Z,22.27
2018-02-21T14:21:49.771Z,20.10
2018-02-21T14:24:18.204Z,20.33
2018-02-21T14:26:45.919Z,22.00
2018-02-21T14:29:13.568Z,21.37
2018-02-21T14:31:41.252Z,19.83
2018-02-21T14:34:08.916Z,20.93
2018-02-21T14:36:36.569Z,18.77
2018-02-21T14:39:04.276Z,22.10
2018-02-21T14:41:31.932Z,21.10
2018-02-21T14:43:59.563Z,20.20
2018-02-21T14:46:28.053Z,19.07
2018-02-21T14:48:56.453Z,18.77
2018-02-21T14:51:24.126Z,19.47
2018-02-21T14:53:51.796Z,19.53
2018-02-21T14:56:20.284Z,19.57
2018-02-21T14:58:48.691Z,20.47
2018-02-21T15:01:16.334Z,21.13
2018-02-21T15:03:44.038Z,18.70
2018-02-21T15:06:11.720Z,18.07
2018-02-21T15:14:36.212Z,21.43
2018-02-21T15:17:03.835Z,22.10
2018-02-21T15:19:32.283Z,20.53
2018-02-21T15:21:59.988Z,23.17
2018-02-21T15:24:28.196Z,22.83
2018-02-21T15:26:56.058Z,21.67
2018-02-21T15:29:23.704Z,23.73
2018-02-21T15:31:51.459Z,23.57
2018-02-21T15:34:19.148Z,25.00
2018-02-21T15:36:46.782Z,21.40
2018-02-21T15:39:15.220Z,22.97
2018-02-21T15:41:42.859Z,24.87
2018-02-21T15:44:10.537Z,31.10
2018-02-21T15:46:38.258Z,28.07
2018-02-21T15:49:05.898Z,22.93
2018-02-21T15:51:33.596Z,21.63
2018-02-21T15:54:01.247Z,24.70
2018-02-21T15:56:28.900Z,22.50
2018-02-21T15:58:57.313Z,24.93
2018-02-21T16:01:24.939Z,24.43
2018-02-21T16:04:05.208Z,21.83
2018-02-21T16:06:32.857Z,28.00
2018-02-21T16:09:00.552Z,24.40
2018-02-21T16:11:28.239Z,22.07
2018-02-21T16:13:56.081Z,24.90
2018-02-21T16:16:23.730Z,25.07
2018-02-21T16:18:51.372Z,23.33
2018-02-21T16:21:19.072Z,25.67
2018-02-21T16:23:46.759Z,22.63
2018-02-21T16:26:14.389Z,23.00
2018-02-21T16:28:42.827Z,26.80
2018-02-21T16:31:10.465Z,26.00
2018-02-21T16:33:38.188Z,21.57
2018-02-21T16:36:05.895Z,22.03
2018-02-21T16:38:33.549Z,23.43
2018-02-21T16:41:01.213Z,23.57
2018-02-21T16:43:28.852Z,24.07
2018-02-21T16:45:57.275Z,21.47
2018-02-21T16:48:24.927Z,24.57
2018-02-21T16:50:52.555Z,22.60
2018-02-21T16:53:20.201Z,23.13
2018-02-21T16:55:47.841Z,21.87
2018-02-21T16:58:15.531Z,26.00
2018-02-21T17:03:54.038Z,26.07
2018-02-21T17:06:21.680Z,24.50
2018-02-21T17:08:49.411Z,23.47
2018-02-21T17:20:16.335Z,23.90
2018-02-21T17:22:44.755Z,23.13
2018-02-21T17:25:12.445Z,24.27
2018-02-21T17:42:24.086Z,26.63
2018-02-21T17:44:51.775Z,24.07
2018-02-21T17:47:19.411Z,29.07
2018-02-21T17:49:47.071Z,23.47
2018-02-21T17:52:14.775Z,26.70
2018-02-21T17:54:43.181Z,26.83
2018-02-21T17:57:10.924Z,29.50
2018-02-21T17:59:38.565Z,27.60
2018-02-21T18:02:06.989Z,33.63
2018-02-21T18:04:34.634Z,25.80
2018-02-21T18:07:03.074Z,26.13
2018-02-21T18:09:31.095Z,28.80
2018-02-21T18:12:10.247Z,24.93
2018-02-21T18:14:38.160Z,25.30
2018-02-21T18:17:05.900Z,31.63
2018-02-21T18:19:34.565Z,24.53
2018-02-21T18:22:02.398Z,27.03
2018-02-21T18:24:30.169Z,28.70
2018-02-21T18:26:57.888Z,24.93
2018-02-21T18:29:25.703Z,27.07
2018-02-21T18:31:54.048Z,24.43
2018-02-21T18:34:21.770Z,28.03
2018-02-21T18:36:50.333Z,26.03
2018-02-21T18:39:18.173Z,37.73
2018-02-21T18:41:45.904Z,29.23
2018-02-21T18:44:13.631Z,29.47
2018-02-21T18:46:52.443Z,25.93
2018-02-21T18:49:21.013Z,25.13
2018-02-21T18:51:53.237Z,24.73
2018-02-21T18:54:21.024Z,113.97
2018-02-21T18:56:49.420Z,41.30
2018-02-21T18:59:17.103Z,42.97
2018-02-21T19:01:45.107Z,31.70
2018-02-21T19:04:13.980Z,26.97
2018-02-21T19:06:42.031Z,29.77
2018-02-21T19:09:10.616Z,31.37
2018-02-21T19:11:39.226Z,30.43
2018-02-21T19:14:07.092Z,34.97
2018-02-21T19:16:34.752Z,34.80
2018-02-21T19:19:02.420Z,27.07
2018-02-21T19:21:30.267Z,30.97
2018-02-21T19:23:57.899Z,28.53
2018-02-21T19:26:25.663Z,25.10
2018-02-21T19:28:53.887Z,27.53
2018-02-21T19:31:21.739Z,37.10
2018-02-21T19:33:49.682Z,25.70
2018-02-21T19:36:17.452Z,25.93
2018-02-21T19:38:45.180Z,22.77
2018-02-21T19:41:13.919Z,24.37
2018-02-21T19:43:41.778Z,35.27
2018-02-21T19:46:10.247Z,28.67
2018-02-21T19:48:38.100Z,24.23
2018-02-21T19:51:05.917Z,27.93
2018-02-21T19:53:34.494Z,25.77
2018-02-21T19:56:02.664Z,36.77
2018-02-21T19:58:30.406Z,35.77
2018-02-21T20:00:58.256Z,31.67
2018-02-21T20:03:26.814Z,42.77
2018-02-21T20:05:54.530Z,38.93
2018-02-21T20:08:23.110Z,35.57
2018-02-21T20:10:51.430Z,33.70
2018-02-21T20:13:19.158Z,56.40
2018-02-21T20:15:47.705Z,40.23
2018-02-21T20:18:15.471Z,31.73
2018-02-21T20:20:43.264Z,32.67
2018-02-21T20:23:11.046Z,26.43
2018-02-21T20:25:38.893Z,26.30
2018-02-21T20:28:20.641Z,27.10
2018-02-21T20:30:48.308Z,28.47
2018-02-21T20:33:15.995Z,30.70
2018-02-21T20:35:43.622Z,31.00
2018-02-21T20:38:11.299Z,32.07
2018-02-21T20:40:39.845Z,29.77
2018-02-21T20:43:07.595Z,33.40
2018-02-21T20:45:35.211Z,29.23
2018-02-21T20:48:02.852Z,32.77
2018-02-21T20:50:30.549Z,34.20
2018-02-21T20:52:58.326Z,24.10
2018-02-21T20:55:26.632Z,25.70
2018-02-21T20:57:54.460Z,24.43
2018-02-21T21:00:22.860Z,25.33
2018-02-21T21:02:50.525Z,22.67
2018-02-21T21:05:20.212Z,28.53
2018-02-21T21:07:47.983Z,24.03
2018-02-21T21:10:15.587Z,22.87
2018-02-21T21:12:44.045Z,21.63
2018-02-21T21:15:11.744Z,27.03
2018-02-21T21:17:39.758Z,28.23
2018-02-21T21:20:07.692Z,26.33
2018-02-21T21:22:35.356Z,21.90
2018-02-21T21:25:03.904Z,25.60
2018-02-21T21:27:31.643Z,20.07
2018-02-21T21:29:59.279Z,20.47
2018-02-21T21:32:32.217Z,23.63
2018-02-21T21:34:59.869Z,37.90
2018-02-21T21:37:27.474Z,24.13
2018-02-21T21:39:55.112Z,24.33
2018-02-21T21:42:25.665Z,24.90
2018-02-21T21:44:53.305Z,26.70
2018-02-21T21:47:21.813Z,20.73
2018-02-21T21:49:49.450Z,21.97
2018-02-21T21:52:17.915Z,19.70
2018-02-21T21:54:45.564Z,19.37
2018-02-21T21:57:13.198Z,19.23
2018-02-21T21:59:40.884Z,22.60
2018-02-21T22:02:08.523Z,31.80
2018-02-21T22:04:36.166Z,30.13
2018-02-21T22:07:03.810Z,35.53
2018-02-21T22:09:31.432Z,21.83
2018-02-21T22:11:59.075Z,22.80
2018-02-21T22:14:26.709Z,18.20
2018-02-21T22:16:55.114Z,17.70
2018-02-21T22:19:22.776Z,18.80
2018-02-21T22:21:51.188Z,17.73
2018-02-21T22:24:18.831Z,20.33
2018-02-21T22:26:47.237Z,18.80
2018-02-21T22:29:15.651Z,18.43
2018-02-21T22:31:44.232Z,18.57
2018-02-21T22:34:11.890Z,19.33
2018-02-21T22:36:40.324Z,21.87
2018-02-21T22:39:07.993Z,21.70
2018-02-21T22:41:35.676Z,22.50
2018-02-21T22:44:03.291Z,23.50
2018-02-21T22:46:30.934Z,28.20
2018-02-21T22:48:58.597Z,24.40
2018-02-21T22:51:26.249Z,20.60
2018-02-21T22:53:53.913Z,19.20
2018-02-21T22:56:22.555Z,19.03
2018-02-21T23:01:56.116Z,28.53
2018-02-21T23:04:23.814Z,22.60
2018-02-21T23:06:51.472Z,27.47
2018-02-21T23:09:19.105Z,21.47
2018-02-21T23:11:46.767Z,21.90
2018-02-21T23:14:14.383Z,27.33
2018-02-21T23:16:42.040Z,32.30
2018-02-21T23:19:09.720Z,31.90
2018-02-21T23:21:38.091Z,34.43
2018-02-21T23:24:05.754Z,31.40
2018-02-21T23:26:33.413Z,18.53
2018-02-21T23:29:01.812Z,18.87
2018-02-21T23:31:30.237Z,30.10
2018-02-21T23:33:57.892Z,31.10
2018-02-21T23:36:25.573Z,18.57
2018-02-21T23:38:53.224Z,19.80
2018-02-21T23:41:21.622Z,20.47
2018-02-21T23:43:49.311Z,17.93
2018-02-21T23:46:16.943Z,15.17
2018-02-21T23:48:44.607Z,16.47
2018-02-21T23:51:12.260Z,16.37
2018-02-21T23:53:39.916Z,16.30
2018-02-21T23:56:07.566Z,16.90
2018-02-21T23:58:35.226Z,22.53
